sensor_id;sensor_type;location;lat;lon;timestamp;pressure;altitude;pressure_sealevel;temperature
70415;BMP280;57837;52.064;113.478;2024-02-15T00:00:37;93974.31;;;-21.51
70415;BMP280;57837;52.064;113.478;2024-02-15T00:03:41;93971.53;;;-21.31
70415;BMP280;57837;52.064;113.478;2024-02-15T00:06:44;93962.81;;;-21.04
70415;BMP280;57837;52.064;113.478;2024-02-15T00:09:48;93961.22;;;-20.86
70415;BMP280;57837;52.064;113.478;2024-02-15T00:12:52;93955.22;;;-20.91
70415;BMP280;57837;52.064;113.478;2024-02-15T00:15:56;93963.00;;;-21.05
70415;BMP280;57837;52.064;113.478;2024-02-15T00:19:00;93962.38;;;-21.01
70415;BMP280;57837;52.064;113.478;2024-02-15T00:22:04;93951.91;;;-20.96
70415;BMP280;57837;52.064;113.478;2024-02-15T00:25:08;93946.78;;;-21.06
70415;BMP280;57837;52.064;113.478;2024-02-15T00:28:12;93940.16;;;-21.06
70415;BMP280;57837;52.064;113.478;2024-02-15T00:31:15;93941.69;;;-21.28
70415;BMP280;57837;52.064;113.478;2024-02-15T00:34:18;93936.63;;;-21.57
70415;BMP280;57837;52.064;113.478;2024-02-15T00:37:22;93935.66;;;-21.68
70415;BMP280;57837;52.064;113.478;2024-02-15T00:40:25;93945.56;;;-21.74
70415;BMP280;57837;52.064;113.478;2024-02-15T00:43:34;93939.03;;;-21.80
70415;BMP280;57837;52.064;113.478;2024-02-15T00:46:38;93939.19;;;-21.52
70415;BMP280;57837;52.064;113.478;2024-02-15T00:49:42;93935.44;;;-21.54
70415;BMP280;57837;52.064;113.478;2024-02-15T00:52:46;93931.75;;;-21.45
70415;BMP280;57837;52.064;113.478;2024-02-15T00:55:51;93927.91;;;-21.41
70415;BMP280;57837;52.064;113.478;2024-02-15T00:58:54;93929.59;;;-21.30
70415;BMP280;57837;52.064;113.478;2024-02-15T01:01:58;93920.00;;;-21.20
70415;BMP280;57837;52.064;113.478;2024-02-15T01:05:03;93920.97;;;-21.21
70415;BMP280;57837;52.064;113.478;2024-02-15T01:08:07;93913.28;;;-21.12
70415;BMP280;57837;52.064;113.478;2024-02-15T01:11:12;93915.81;;;-20.96
70415;BMP280;57837;52.064;113.478;2024-02-15T01:14:16;93905.09;;;-20.78
70415;BMP280;57837;52.064;113.478;2024-02-15T01:17:19;93900.69;;;-20.76
70415;BMP280;57837;52.064;113.478;2024-02-15T01:20:23;93893.47;;;-20.82
70415;BMP280;57837;52.064;113.478;2024-02-15T01:23:26;93896.22;;;-20.79
70415;BMP280;57837;52.064;113.478;2024-02-15T01:26:30;93886.06;;;-20.71
70415;BMP280;57837;52.064;113.478;2024-02-15T01:29:33;93881.19;;;-20.54
70415;BMP280;57837;52.064;113.478;2024-02-15T01:32:37;93877.53;;;-20.51
70415;BMP280;57837;52.064;113.478;2024-02-15T01:35:44;93858.69;;;-20.46
70415;BMP280;57837;52.064;113.478;2024-02-15T01:38:48;93851.97;;;-20.22
70415;BMP280;57837;52.064;113.478;2024-02-15T01:41:52;93839.69;;;-20.05
70415;BMP280;57837;52.064;113.478;2024-02-15T01:44:59;93827.69;;;-19.85
70415;BMP280;57837;52.064;113.478;2024-02-15T01:48:04;93817.72;;;-19.56
70415;BMP280;57837;52.064;113.478;2024-02-15T01:51:10;93805.53;;;-19.24
70415;BMP280;57837;52.064;113.478;2024-02-15T01:54:15;93798.66;;;-19.00
70415;BMP280;57837;52.064;113.478;2024-02-15T01:57:21;93800.34;;;-18.73
70415;BMP280;57837;52.064;113.478;2024-02-15T02:00:26;93794.34;;;-18.56
70415;BMP280;57837;52.064;113.478;2024-02-15T02:03:29;93785.41;;;-18.62
70415;BMP280;57837;52.064;113.478;2024-02-15T02:06:33;93773.28;;;-18.63
70415;BMP280;57837;52.064;113.478;2024-02-15T02:09:36;93766.84;;;-18.42
70415;BMP280;57837;52.064;113.478;2024-02-15T02:12:40;93765.72;;;-18.24
70415;BMP280;57837;52.064;113.478;2024-02-15T02:15:44;93750.72;;;-18.13
70415;BMP280;57837;52.064;113.478;2024-02-15T02:18:48;93752.16;;;-18.22
70415;BMP280;57837;52.064;113.478;2024-02-15T02:21:52;93746.91;;;-18.31
70415;BMP280;57837;52.064;113.478;2024-02-15T02:25:03;93746.19;;;-18.26
70415;BMP280;57837;52.064;113.478;2024-02-15T02:28:09;93732.81;;;-18.35
70415;BMP280;57837;52.064;113.478;2024-02-15T02:31:14;93730.00;;;-18.12
70415;BMP280;57837;52.064;113.478;2024-02-15T02:34:17;93721.19;;;-17.98
70415;BMP280;57837;52.064;113.478;2024-02-15T02:37:26;93713.88;;;-17.72
70415;BMP280;57837;52.064;113.478;2024-02-15T02:40:30;93697.13;;;-17.65
70415;BMP280;57837;52.064;113.478;2024-02-15T02:43:34;93684.34;;;-17.36
70415;BMP280;57837;52.064;113.478;2024-02-15T02:46:38;93678.41;;;-16.69
70415;BMP280;57837;52.064;113.478;2024-02-15T02:49:42;93671.94;;;-16.40
70415;BMP280;57837;52.064;113.478;2024-02-15T02:52:45;93661.38;;;-15.91
70415;BMP280;57837;52.064;113.478;2024-02-15T02:55:52;93655.59;;;-15.81
70415;BMP280;57837;52.064;113.478;2024-02-15T02:58:54;93641.44;;;-15.70
70415;BMP280;57837;52.064;113.478;2024-02-15T03:01:58;93639.28;;;-15.43
70415;BMP280;57837;52.064;113.478;2024-02-15T03:05:05;93625.75;;;-15.27
70415;BMP280;57837;52.064;113.478;2024-02-15T03:08:09;93625.75;;;-15.27
70415;BMP280;57837;52.064;113.478;2024-02-15T03:11:13;93615.19;;;-15.37
70415;BMP280;57837;52.064;113.478;2024-02-15T03:14:17;93620.34;;;-15.34
70415;BMP280;57837;52.064;113.478;2024-02-15T03:17:20;93619.06;;;-15.26
70415;BMP280;57837;52.064;113.478;2024-02-15T03:20:24;93620.09;;;-15.32
70415;BMP280;57837;52.064;113.478;2024-02-15T03:23:27;93610.06;;;-15.17
70415;BMP280;57837;52.064;113.478;2024-02-15T03:26:33;93596.97;;;-14.93
70415;BMP280;57837;52.064;113.478;2024-02-15T03:29:42;93591.91;;;-14.59
70415;BMP280;57837;52.064;113.478;2024-02-15T03:32:47;93587.53;;;-14.49
70415;BMP280;57837;52.064;113.478;2024-02-15T03:35:51;93581.19;;;-14.55
70415;BMP280;57837;52.064;113.478;2024-02-15T03:38:56;93572.31;;;-14.61
70415;BMP280;57837;52.064;113.478;2024-02-15T03:41:59;93564.66;;;-14.46
70415;BMP280;57837;52.064;113.478;2024-02-15T03:45:07;93559.00;;;-14.08
70415;BMP280;57837;52.064;113.478;2024-02-15T03:48:11;93549.78;;;-13.56
70415;BMP280;57837;52.064;113.478;2024-02-15T03:51:16;93525.28;;;-13.17
70415;BMP280;57837;52.064;113.478;2024-02-15T03:54:21;93504.22;;;-13.52
70415;BMP280;57837;52.064;113.478;2024-02-15T03:57:26;93500.66;;;-13.18
70415;BMP280;57837;52.064;113.478;2024-02-15T04:00:30;93491.88;;;-13.02
70415;BMP280;57837;52.064;113.478;2024-02-15T04:03:33;93486.63;;;-13.14
70415;BMP280;57837;52.064;113.478;2024-02-15T04:06:36;93465.28;;;-13.15
70415;BMP280;57837;52.064;113.478;2024-02-15T04:09:40;93459.91;;;-12.95
70415;BMP280;57837;52.064;113.478;2024-02-15T04:12:44;93438.88;;;-12.66
70415;BMP280;57837;52.064;113.478;2024-02-15T04:15:48;93431.88;;;-12.20
70415;BMP280;57837;52.064;113.478;2024-02-15T04:18:53;93409.22;;;-12.09
70415;BMP280;57837;52.064;113.478;2024-02-15T04:22:00;93398.50;;;-12.10
70415;BMP280;57837;52.064;113.478;2024-02-15T04:25:07;93382.72;;;-11.97
70415;BMP280;57837;52.064;113.478;2024-02-15T04:28:20;93376.81;;;-12.01
70415;BMP280;57837;52.064;113.478;2024-02-15T04:31:23;93360.19;;;-12.14
70415;BMP280;57837;52.064;113.478;2024-02-15T04:34:29;93362.44;;;-12.04
70415;BMP280;57837;52.064;113.478;2024-02-15T04:37:36;93348.66;;;-12.01
70415;BMP280;57837;52.064;113.478;2024-02-15T04:40:40;93342.38;;;-11.99
70415;BMP280;57837;52.064;113.478;2024-02-15T04:43:43;93334.75;;;-11.94
70415;BMP280;57837;52.064;113.478;2024-02-15T04:46:48;93330.91;;;-12.00
70415;BMP280;57837;52.064;113.478;2024-02-15T04:49:55;93323.91;;;-12.06
70415;BMP280;57837;52.064;113.478;2024-02-15T04:52:59;93324.72;;;-12.20
70415;BMP280;57837;52.064;113.478;2024-02-15T04:56:03;93318.53;;;-12.22
70415;BMP280;57837;52.064;113.478;2024-02-15T04:59:14;93318.13;;;-12.16
70415;BMP280;57837;52.064;113.478;2024-02-15T05:02:22;93312.91;;;-12.05
70415;BMP280;57837;52.064;113.478;2024-02-15T05:05:27;93307.28;;;-12.02
70415;BMP280;57837;52.064;113.478;2024-02-15T05:08:32;93302.34;;;-11.94
70415;BMP280;57837;52.064;113.478;2024-02-15T05:11:36;93296.97;;;-11.78
70415;BMP280;57837;52.064;113.478;2024-02-15T05:14:40;93274.97;;;-11.85
70415;BMP280;57837;52.064;113.478;2024-02-15T05:17:43;93280.69;;;-11.41
70415;BMP280;57837;52.064;113.478;2024-02-15T05:20:46;93258.50;;;-10.99
70415;BMP280;57837;52.064;113.478;2024-02-15T05:23:50;93242.34;;;-11.19
70415;BMP280;57837;52.064;113.478;2024-02-15T05:26:55;93232.97;;;-11.22
70415;BMP280;57837;52.064;113.478;2024-02-15T05:29:58;93226.34;;;-11.01
70415;BMP280;57837;52.064;113.478;2024-02-15T05:33:02;93230.16;;;-11.21
70415;BMP280;57837;52.064;113.478;2024-02-15T05:36:07;93214.06;;;-11.58
70415;BMP280;57837;52.064;113.478;2024-02-15T05:39:12;93209.94;;;-11.63
70415;BMP280;57837;52.064;113.478;2024-02-15T05:42:17;93199.09;;;-11.23
70415;BMP280;57837;52.064;113.478;2024-02-15T05:48:37;93182.34;;;-11.40
70415;BMP280;57837;52.064;113.478;2024-02-15T05:51:42;93184.00;;;-11.79
70415;BMP280;57837;52.064;113.478;2024-02-15T05:54:46;93177.09;;;-11.73
70415;BMP280;57837;52.064;113.478;2024-02-15T05:57:50;93169.16;;;-11.58
70415;BMP280;57837;52.064;113.478;2024-02-15T06:00:54;93146.72;;;-11.58
70415;BMP280;57837;52.064;113.478;2024-02-15T06:03:58;93151.38;;;-11.31
70415;BMP280;57837;52.064;113.478;2024-02-15T06:07:03;93131.41;;;-11.31
70415;BMP280;57837;52.064;113.478;2024-02-15T06:10:08;93119.00;;;-11.18
70415;BMP280;57837;52.064;113.478;2024-02-15T06:13:12;93115.91;;;-10.77
70415;BMP280;57837;52.064;113.478;2024-02-15T06:16:16;93102.41;;;-10.55
70415;BMP280;57837;52.064;113.478;2024-02-15T06:19:20;93087.25;;;-10.50
70415;BMP280;57837;52.064;113.478;2024-02-15T06:22:25;93079.44;;;-10.69
70415;BMP280;57837;52.064;113.478;2024-02-15T06:25:31;93066.50;;;-10.72
70415;BMP280;57837;52.064;113.478;2024-02-15T06:28:35;93054.38;;;-10.61
70415;BMP280;57837;52.064;113.478;2024-02-15T06:31:57;93048.03;;;-10.58
70415;BMP280;57837;52.064;113.478;2024-02-15T06:35:20;93051.44;;;-10.63
70415;BMP280;57837;52.064;113.478;2024-02-15T06:38:42;93055.59;;;-10.46
70415;BMP280;57837;52.064;113.478;2024-02-15T06:42:05;93053.22;;;-10.43
70415;BMP280;57837;52.064;113.478;2024-02-15T06:45:09;93048.97;;;-10.42
70415;BMP280;57837;52.064;113.478;2024-02-15T06:48:42;93054.75;;;-10.71
70415;BMP280;57837;52.064;113.478;2024-02-15T06:51:48;93064.00;;;-10.72
70415;BMP280;57837;52.064;113.478;2024-02-15T06:54:52;93065.19;;;-10.69
70415;BMP280;57837;52.064;113.478;2024-02-15T06:57:57;93068.41;;;-10.68
70415;BMP280;57837;52.064;113.478;2024-02-15T07:01:00;93071.84;;;-10.82
70415;BMP280;57837;52.064;113.478;2024-02-15T07:04:03;93066.44;;;-10.84
70415;BMP280;57837;52.064;113.478;2024-02-15T07:07:07;93062.78;;;-10.95
70415;BMP280;57837;52.064;113.478;2024-02-15T07:10:10;93061.91;;;-10.90
70415;BMP280;57837;52.064;113.478;2024-02-15T07:13:14;93045.22;;;-10.98
70415;BMP280;57837;52.064;113.478;2024-02-15T07:16:17;93036.72;;;-11.06
70415;BMP280;57837;52.064;113.478;2024-02-15T07:19:20;93028.56;;;-10.94
70415;BMP280;57837;52.064;113.478;2024-02-15T07:22:24;93021.94;;;-10.90
70415;BMP280;57837;52.064;113.478;2024-02-15T07:25:27;93031.75;;;-10.64
70415;BMP280;57837;52.064;113.478;2024-02-15T07:28:31;93014.97;;;-10.22
70415;BMP280;57837;52.064;113.478;2024-02-15T07:31:34;93012.88;;;-10.20
70415;BMP280;57837;52.064;113.478;2024-02-15T07:34:38;93012.03;;;-10.12
70415;BMP280;57837;52.064;113.478;2024-02-15T07:37:51;93020.59;;;-10.25
70415;BMP280;57837;52.064;113.478;2024-02-15T07:40:55;93012.84;;;-10.53
70415;BMP280;57837;52.064;113.478;2024-02-15T07:43:58;93023.59;;;-10.53
70415;BMP280;57837;52.064;113.478;2024-02-15T07:47:04;93009.72;;;-10.29
70415;BMP280;57837;52.064;113.478;2024-02-15T07:50:08;93017.91;;;-10.08
70415;BMP280;57837;52.064;113.478;2024-02-15T07:53:13;93016.38;;;-10.00
70415;BMP280;57837;52.064;113.478;2024-02-15T07:56:17;93011.88;;;-10.07
70415;BMP280;57837;52.064;113.478;2024-02-15T07:59:21;93006.88;;;-10.40
70415;BMP280;57837;52.064;113.478;2024-02-15T08:02:25;92997.72;;;-10.36
70415;BMP280;57837;52.064;113.478;2024-02-15T08:05:32;92989.47;;;-10.16
70415;BMP280;57837;52.064;113.478;2024-02-15T08:08:36;92974.97;;;-10.10
70415;BMP280;57837;52.064;113.478;2024-02-15T08:11:40;92975.19;;;-10.15
70415;BMP280;57837;52.064;113.478;2024-02-15T08:14:44;92966.19;;;-10.28
70415;BMP280;57837;52.064;113.478;2024-02-15T08:17:47;92956.72;;;-10.23
70415;BMP280;57837;52.064;113.478;2024-02-15T08:20:51;92951.22;;;-10.04
70415;BMP280;57837;52.064;113.478;2024-02-15T08:23:55;92944.16;;;-10.14
70415;BMP280;57837;52.064;113.478;2024-02-15T08:26:58;92925.53;;;-10.37
70415;BMP280;57837;52.064;113.478;2024-02-15T08:30:03;92921.69;;;-10.47
70415;BMP280;57837;52.064;113.478;2024-02-15T08:33:07;92916.56;;;-10.38
70415;BMP280;57837;52.064;113.478;2024-02-15T08:36:14;92907.16;;;-10.08
70415;BMP280;57837;52.064;113.478;2024-02-15T08:39:18;92899.56;;;-10.00
70415;BMP280;57837;52.064;113.478;2024-02-15T08:42:22;92894.44;;;-10.03
70415;BMP280;57837;52.064;113.478;2024-02-15T08:45:26;92890.56;;;-10.13
70415;BMP280;57837;52.064;113.478;2024-02-15T08:48:30;92882.75;;;-10.12
70415;BMP280;57837;52.064;113.478;2024-02-15T08:51:35;92882.34;;;-10.26
70415;BMP280;57837;52.064;113.478;2024-02-15T08:54:40;92886.00;;;-10.23
70415;BMP280;57837;52.064;113.478;2024-02-15T08:57:45;92879.53;;;-10.24
70415;BMP280;57837;52.064;113.478;2024-02-15T09:00:48;92881.00;;;-10.23
70415;BMP280;57837;52.064;113.478;2024-02-15T09:03:52;92875.91;;;-10.27
70415;BMP280;57837;52.064;113.478;2024-02-15T09:06:56;92861.72;;;-10.23
70415;BMP280;57837;52.064;113.478;2024-02-15T09:10:00;92865.66;;;-10.34
70415;BMP280;57837;52.064;113.478;2024-02-15T09:13:04;92861.41;;;-10.33
70415;BMP280;57837;52.064;113.478;2024-02-15T09:16:10;92851.72;;;-10.35
70415;BMP280;57837;52.064;113.478;2024-02-15T09:19:15;92832.75;;;-10.36
70415;BMP280;57837;52.064;113.478;2024-02-15T09:22:19;92842.25;;;-10.17
70415;BMP280;57837;52.064;113.478;2024-02-15T09:25:24;92843.81;;;-10.25
70415;BMP280;57837;52.064;113.478;2024-02-15T09:28:28;92838.28;;;-10.30
70415;BMP280;57837;52.064;113.478;2024-02-15T09:31:31;92832.44;;;-10.34
70415;BMP280;57837;52.064;113.478;2024-02-15T09:34:37;92834.31;;;-10.31
70415;BMP280;57837;52.064;113.478;2024-02-15T09:37:45;92819.72;;;-10.29
70415;BMP280;57837;52.064;113.478;2024-02-15T09:40:49;92823.09;;;-10.25
70415;BMP280;57837;52.064;113.478;2024-02-15T09:43:53;92818.41;;;-10.15
70415;BMP280;57837;52.064;113.478;2024-02-15T09:47:03;92816.09;;;-10.07
70415;BMP280;57837;52.064;113.478;2024-02-15T09:50:13;92810.75;;;-9.94
70415;BMP280;57837;52.064;113.478;2024-02-15T09:53:23;92795.19;;;-9.75
70415;BMP280;57837;52.064;113.478;2024-02-15T09:56:30;92790.81;;;-9.50
70415;BMP280;57837;52.064;113.478;2024-02-15T09:59:34;92797.78;;;-9.43
70415;BMP280;57837;52.064;113.478;2024-02-15T10:02:58;92797.78;;;-9.43
70415;BMP280;57837;52.064;113.478;2024-02-15T10:06:04;92794.13;;;-9.34
70415;BMP280;57837;52.064;113.478;2024-02-15T10:09:28;92780.16;;;-9.35
70415;BMP280;57837;52.064;113.478;2024-02-15T10:12:39;92784.81;;;-9.33
70415;BMP280;57837;52.064;113.478;2024-02-15T10:15:43;92781.19;;;-9.36
70415;BMP280;57837;52.064;113.478;2024-02-15T10:18:49;92777.13;;;-9.40
70415;BMP280;57837;52.064;113.478;2024-02-15T10:21:54;92783.50;;;-9.43
70415;BMP280;57837;52.064;113.478;2024-02-15T10:25:11;92783.81;;;-9.44
70415;BMP280;57837;52.064;113.478;2024-02-15T10:28:21;92782.38;;;-9.45
70415;BMP280;57837;52.064;113.478;2024-02-15T10:31:27;92780.91;;;-9.46
70415;BMP280;57837;52.064;113.478;2024-02-15T10:34:31;92777.91;;;-9.52
70415;BMP280;57837;52.064;113.478;2024-02-15T10:37:36;92767.47;;;-9.54
70415;BMP280;57837;52.064;113.478;2024-02-15T10:40:41;92780.19;;;-9.47
70415;BMP280;57837;52.064;113.478;2024-02-15T10:43:46;92784.22;;;-9.42
70415;BMP280;57837;52.064;113.478;2024-02-15T10:46:52;92779.22;;;-9.42
70415;BMP280;57837;52.064;113.478;2024-02-15T10:49:57;92777.03;;;-9.44
70415;BMP280;57837;52.064;113.478;2024-02-15T10:53:09;92781.97;;;-9.47
70415;BMP280;57837;52.064;113.478;2024-02-15T10:56:26;92770.91;;;-9.46
70415;BMP280;57837;52.064;113.478;2024-02-15T10:59:34;92779.94;;;-9.42
70415;BMP280;57837;52.064;113.478;2024-02-15T11:05:55;92777.38;;;-9.45
70415;BMP280;57837;52.064;113.478;2024-02-15T11:09:02;92781.00;;;-9.43
70415;BMP280;57837;52.064;113.478;2024-02-15T11:12:07;92780.69;;;-9.41
70415;BMP280;57837;52.064;113.478;2024-02-15T11:15:10;92774.41;;;-9.35
70415;BMP280;57837;52.064;113.478;2024-02-15T11:18:45;92767.03;;;-9.44
70415;BMP280;57837;52.064;113.478;2024-02-15T11:21:56;92759.19;;;-9.42
70415;BMP280;57837;52.064;113.478;2024-02-15T11:25:00;92764.00;;;-9.37
70415;BMP280;57837;52.064;113.478;2024-02-15T11:31:54;92749.16;;;-9.58
70415;BMP280;57837;52.064;113.478;2024-02-15T11:35:06;92747.38;;;-9.58
70415;BMP280;57837;52.064;113.478;2024-02-15T11:38:28;92750.47;;;-9.48
70415;BMP280;57837;52.064;113.478;2024-02-15T11:41:31;92747.53;;;-9.50
70415;BMP280;57837;52.064;113.478;2024-02-15T11:44:37;92744.50;;;-9.44
70415;BMP280;57837;52.064;113.478;2024-02-15T11:47:41;92743.66;;;-9.64
70415;BMP280;57837;52.064;113.478;2024-02-15T11:50:46;92744.38;;;-9.63
70415;BMP280;57837;52.064;113.478;2024-02-15T11:54:07;92741.16;;;-9.64
70415;BMP280;57837;52.064;113.478;2024-02-15T11:57:15;92735.34;;;-9.80
70415;BMP280;57837;52.064;113.478;2024-02-15T12:00:32;92738.34;;;-9.90
70415;BMP280;57837;52.064;113.478;2024-02-15T12:03:55;92738.97;;;-9.93
70415;BMP280;57837;52.064;113.478;2024-02-15T12:07:17;92740.09;;;-9.91
70415;BMP280;57837;52.064;113.478;2024-02-15T12:10:39;92735.09;;;-10.03
70415;BMP280;57837;52.064;113.478;2024-02-15T12:14:02;92729.44;;;-10.16
70415;BMP280;57837;52.064;113.478;2024-02-15T12:17:24;92734.34;;;-10.31
70415;BMP280;57837;52.064;113.478;2024-02-15T12:20:46;92727.03;;;-10.36
70415;BMP280;57837;52.064;113.478;2024-02-15T12:23:51;92711.56;;;-10.42
70415;BMP280;57837;52.064;113.478;2024-02-15T12:27:02;92710.50;;;-10.53
70415;BMP280;57837;52.064;113.478;2024-02-15T12:30:16;92702.38;;;-10.62
70415;BMP280;57837;52.064;113.478;2024-02-15T12:33:29;92705.75;;;-10.71
70415;BMP280;57837;52.064;113.478;2024-02-15T12:36:35;92698.88;;;-10.74
70415;BMP280;57837;52.064;113.478;2024-02-15T12:39:41;92696.19;;;-10.68
70415;BMP280;57837;52.064;113.478;2024-02-15T12:42:46;92697.22;;;-10.69
70415;BMP280;57837;52.064;113.478;2024-02-15T12:45:55;92686.50;;;-10.70
70415;BMP280;57837;52.064;113.478;2024-02-15T12:49:50;92683.25;;;-10.71
70415;BMP280;57837;52.064;113.478;2024-02-15T12:52:37;92672.25;;;-10.69
70415;BMP280;57837;52.064;113.478;2024-02-15T12:55:42;92666.22;;;-10.68
70415;BMP280;57837;52.064;113.478;2024-02-15T12:58:46;92664.91;;;-10.62
70415;BMP280;57837;52.064;113.478;2024-02-15T13:01:51;92669.31;;;-10.59
70415;BMP280;57837;52.064;113.478;2024-02-15T13:04:58;92663.28;;;-10.71
70415;BMP280;57837;52.064;113.478;2024-02-15T13:08:02;92671.50;;;-10.82
70415;BMP280;57837;52.064;113.478;2024-02-15T13:11:06;92663.06;;;-10.90
70415;BMP280;57837;52.064;113.478;2024-02-15T13:14:13;92655.59;;;-11.02
70415;BMP280;57837;52.064;113.478;2024-02-15T13:17:16;92646.00;;;-11.12
70415;BMP280;57837;52.064;113.478;2024-02-15T13:20:21;92646.00;;;-11.12
70415;BMP280;57837;52.064;113.478;2024-02-15T13:23:35;92632.59;;;-11.20
70415;BMP280;57837;52.064;113.478;2024-02-15T13:26:40;92633.72;;;-11.17
70415;BMP280;57837;52.064;113.478;2024-02-15T13:29:44;92626.13;;;-11.21
70415;BMP280;57837;52.064;113.478;2024-02-15T13:32:48;92621.69;;;-11.27
70415;BMP280;57837;52.064;113.478;2024-02-15T13:35:53;92612.34;;;-11.31
70415;BMP280;57837;52.064;113.478;2024-02-15T13:38:57;92623.53;;;-11.37
70415;BMP280;57837;52.064;113.478;2024-02-15T13:42:02;92606.41;;;-11.38
70415;BMP280;57837;52.064;113.478;2024-02-15T13:45:40;92611.06;;;-11.37
70415;BMP280;57837;52.064;113.478;2024-02-15T13:48:44;92596.31;;;-11.54
70415;BMP280;57837;52.064;113.478;2024-02-15T13:51:48;92598.56;;;-11.49
70415;BMP280;57837;52.064;113.478;2024-02-15T13:54:54;92602.03;;;-11.53
70415;BMP280;57837;52.064;113.478;2024-02-15T13:57:57;92585.56;;;-11.67
70415;BMP280;57837;52.064;113.478;2024-02-15T14:01:01;92582.75;;;-11.65
70415;BMP280;57837;52.064;113.478;2024-02-15T14:04:06;92570.69;;;-11.75
70415;BMP280;57837;52.064;113.478;2024-02-15T14:07:12;92565.81;;;-11.84
70415;BMP280;57837;52.064;113.478;2024-02-15T14:10:16;92559.38;;;-11.85
70415;BMP280;57837;52.064;113.478;2024-02-15T14:13:22;92569.63;;;-11.99
70415;BMP280;57837;52.064;113.478;2024-02-15T14:16:26;92561.09;;;-11.98
70415;BMP280;57837;52.064;113.478;2024-02-15T14:19:29;92540.31;;;-12.02
70415;BMP280;57837;52.064;113.478;2024-02-15T14:22:32;92541.34;;;-12.03
70415;BMP280;57837;52.064;113.478;2024-02-15T14:25:38;92543.63;;;-12.10
70415;BMP280;57837;52.064;113.478;2024-02-15T14:28:43;92548.06;;;-12.16
70415;BMP280;57837;52.064;113.478;2024-02-15T14:31:46;92551.19;;;-12.19
70415;BMP280;57837;52.064;113.478;2024-02-15T14:35:08;92552.28;;;-12.28
70415;BMP280;57837;52.064;113.478;2024-02-15T14:38:15;92550.00;;;-12.33
70415;BMP280;57837;52.064;113.478;2024-02-15T14:41:22;92542.94;;;-12.31
70415;BMP280;57837;52.064;113.478;2024-02-15T14:44:35;92540.63;;;-12.36
70415;BMP280;57837;52.064;113.478;2024-02-15T14:47:40;92545.03;;;-12.33
70415;BMP280;57837;52.064;113.478;2024-02-15T14:50:46;92540.13;;;-12.30
70415;BMP280;57837;52.064;113.478;2024-02-15T14:53:50;92522.69;;;-12.42
70415;BMP280;57837;52.064;113.478;2024-02-15T14:56:55;92522.13;;;-12.48
70415;BMP280;57837;52.064;113.478;2024-02-15T14:59:58;92522.19;;;-12.56
70415;BMP280;57837;52.064;113.478;2024-02-15T15:03:03;92517.09;;;-12.60
70415;BMP280;57837;52.064;113.478;2024-02-15T15:06:08;92503.81;;;-12.64
70415;BMP280;57837;52.064;113.478;2024-02-15T15:09:30;92511.47;;;-12.69
70415;BMP280;57837;52.064;113.478;2024-02-15T15:12:52;92513.16;;;-12.82
70415;BMP280;57837;52.064;113.478;2024-02-15T15:15:56;92519.25;;;-12.91
70415;BMP280;57837;52.064;113.478;2024-02-15T15:19:00;92507.75;;;-13.05
70415;BMP280;57837;52.064;113.478;2024-02-15T15:22:04;92516.25;;;-13.06
70415;BMP280;57837;52.064;113.478;2024-02-15T15:25:09;92509.50;;;-13.05
70415;BMP280;57837;52.064;113.478;2024-02-15T15:28:13;92485.41;;;-13.13
70415;BMP280;57837;52.064;113.478;2024-02-15T15:31:20;92487.81;;;-13.17
70415;BMP280;57837;52.064;113.478;2024-02-15T15:34:24;92482.56;;;-13.24
70415;BMP280;57837;52.064;113.478;2024-02-15T15:37:29;92474.25;;;-13.28
70415;BMP280;57837;52.064;113.478;2024-02-15T15:40:33;92474.84;;;-13.31
70415;BMP280;57837;52.064;113.478;2024-02-15T15:43:37;92474.59;;;-13.38
70415;BMP280;57837;52.064;113.478;2024-02-15T15:46:40;92473.22;;;-13.48
70415;BMP280;57837;52.064;113.478;2024-02-15T15:49:43;92464.28;;;-13.49
70415;BMP280;57837;52.064;113.478;2024-02-15T15:52:49;92470.72;;;-13.48
70415;BMP280;57837;52.064;113.478;2024-02-15T15:55:56;92469.56;;;-13.50
70415;BMP280;57837;52.064;113.478;2024-02-15T15:59:00;92465.34;;;-13.59
70415;BMP280;57837;52.064;113.478;2024-02-15T16:02:04;92463.91;;;-13.60
70415;BMP280;57837;52.064;113.478;2024-02-15T16:05:09;92442.09;;;-13.63
70415;BMP280;57837;52.064;113.478;2024-02-15T16:08:15;92446.13;;;-13.70
70415;BMP280;57837;52.064;113.478;2024-02-15T16:11:19;92456.06;;;-13.70
70415;BMP280;57837;52.064;113.478;2024-02-15T16:14:23;92448.78;;;-13.75
70415;BMP280;57837;52.064;113.478;2024-02-15T16:17:27;92454.03;;;-13.77
70415;BMP280;57837;52.064;113.478;2024-02-15T16:20:33;92455.50;;;-13.76
70415;BMP280;57837;52.064;113.478;2024-02-15T16:23:36;92448.81;;;-13.84
70415;BMP280;57837;52.064;113.478;2024-02-15T16:26:40;92430.00;;;-13.94
70415;BMP280;57837;52.064;113.478;2024-02-15T16:29:44;92427.84;;;-14.04
70415;BMP280;57837;52.064;113.478;2024-02-15T16:32:52;92419.09;;;-14.10
70415;BMP280;57837;52.064;113.478;2024-02-15T16:35:55;92412.06;;;-14.08
70415;BMP280;57837;52.064;113.478;2024-02-15T16:39:00;92402.75;;;-14.11
70415;BMP280;57837;52.064;113.478;2024-02-15T16:42:04;92395.16;;;-14.15
70415;BMP280;57837;52.064;113.478;2024-02-15T16:45:10;92398.41;;;-14.23
70415;BMP280;57837;52.064;113.478;2024-02-15T16:48:17;92388.97;;;-14.29
70415;BMP280;57837;52.064;113.478;2024-02-15T16:51:22;92391.16;;;-14.36
70415;BMP280;57837;52.064;113.478;2024-02-15T16:54:27;92381.09;;;-14.40
70415;BMP280;57837;52.064;113.478;2024-02-15T16:57:36;92384.28;;;-14.39
70415;BMP280;57837;52.064;113.478;2024-02-15T17:00:42;92386.63;;;-14.34
70415;BMP280;57837;52.064;113.478;2024-02-15T17:03:46;92383.13;;;-14.33
70415;BMP280;57837;52.064;113.478;2024-02-15T17:06:52;92387.19;;;-14.37
70415;BMP280;57837;52.064;113.478;2024-02-15T17:09:56;92386.59;;;-14.26
70415;BMP280;57837;52.064;113.478;2024-02-15T17:13:00;92376.63;;;-14.17
70415;BMP280;57837;52.064;113.478;2024-02-15T17:16:04;92380.66;;;-14.04
70415;BMP280;57837;52.064;113.478;2024-02-15T17:19:08;92387.69;;;-14.06